Time;durP1;ratioP1;P1;durP2;ratioP2;P2;SDS_P1;SDS_P2;PMS_P1;PMS_P2;Temp;Humidity;BMP_temperature;BMP_pressure;BME280_temperature;BME280_humidity;BME280_pressure;Samples;Min_cycle;Max_cycle;Signal;HPM_P1;HPM_P2
2022/07/03 00:00:18;;;;;;;;;;;;;;;28.03;41.93;101079.87;105142;1303;61367;-81
2022/07/03 00:02:44;;;;;;;;;;;;;;;28.03;42.00;101074.14;105213;1303;61244;-82
2022/07/03 00:05:09;;;;;;;;;;;;;;;28.03;42.03;101077.16;104946;1303;61288;-82
2022/07/03 00:07:36;;;;;;;;;;;;;;;28.03;42.10;101078.27;105186;1302;61333;-81
2022/07/03 00:10:02;;;;;;;;;;;;;;;28.03;41.84;101074.07;105146;1302;74816;-82
2022/07/03 00:12:27;;;;;;;;;;;;;;;28.03;42.13;101077.70;104931;1302;63007;-81
2022/07/03 00:14:52;;;;;;;;;;;;;;;28.03;42.21;101079.23;105283;1303;61277;-81
2022/07/03 00:17:18;;;;;;;;;;;;;;;28.03;41.84;101084.42;105209;1301;61330;-81
2022/07/03 00:19:43;;;;;;;;;;;;;;;28.03;41.96;101082.48;105153;1303;61420;-81
2022/07/03 00:22:11;;;;;;;;;;;;;;;28.03;41.95;101081.55;105241;1301;61326;-81
2022/07/03 00:24:39;;;;;;;;;;;;;;;28.02;41.92;101082.54;105153;1301;75905;-82
2022/07/03 00:27:05;;;;;;;;;;;;;;;28.02;41.90;101080.73;105225;1301;61249;-82
2022/07/03 00:29:31;;;;;;;;;;;;;;;28.02;42.03;101081.27;105135;1302;61153;-82
2022/07/03 00:31:57;;;;;;;;;;;;;;;28.02;42.06;101086.70;105171;1303;61310;-82
2022/07/03 00:34:22;;;;;;;;;;;;;;;28.02;42.12;101084.19;105112;1301;61275;-82
2022/07/03 00:36:48;;;;;;;;;;;;;;;28.01;42.06;101080.62;105254;1303;61258;-82
2022/07/03 00:39:13;;;;;;;;;;;;;;;28.01;42.06;101079.88;105130;1303;61265;-82
2022/07/03 00:41:39;;;;;;;;;;;;;;;28.01;42.01;101081.33;105155;1302;61818;-82
2022/07/03 00:44:04;;;;;;;;;;;;;;;28.01;42.13;101081.36;105128;1303;61256;-82
2022/07/03 00:46:30;;;;;;;;;;;;;;;28.01;42.12;101078.11;105234;1303;61253;-82
2022/07/03 00:48:56;;;;;;;;;;;;;;;28.01;41.99;101078.29;105148;1301;61212;-82
2022/07/03 00:51:23;;;;;;;;;;;;;;;28.01;42.14;101077.94;105157;1302;61165;-82
2022/07/03 00:53:52;;;;;;;;;;;;;;;28.01;42.12;101078.13;104960;1302;62438;-82
2022/07/03 00:56:23;;;;;;;;;;;;;;;28.00;42.22;101079.80;105014;1302;77986;-82
2022/07/03 00:58:50;;;;;;;;;;;;;;;28.01;42.22;101076.50;105015;1303;61293;-81
2022/07/03 01:01:16;;;;;;;;;;;;;;;28.00;42.05;101077.80;105107;1300;61166;-81
2022/07/03 01:03:42;;;;;;;;;;;;;;;28.00;42.19;101074.74;104980;1302;61251;-81
2022/07/03 01:06:10;;;;;;;;;;;;;;;28.00;42.22;101069.17;105194;1302;61245;-81
2022/07/03 01:08:45;;;;;;;;;;;;;;;27.99;42.08;101070.09;105001;1302;61182;-81
2022/07/03 01:11:22;;;;;;;;;;;;;;;28.00;41.99;101068.64;105181;1302;61183;-81
2022/07/03 01:14:05;;;;;;;;;;;;;;;28.00;42.31;101071.17;105106;1302;73586;-81
2022/07/03 01:16:54;;;;;;;;;;;;;;;27.99;42.10;101065.23;105180;1302;75978;-81
2022/07/03 01:19:37;;;;;;;;;;;;;;;27.99;42.18;101071.58;104530;1306;61100;-81
2022/07/03 01:22:22;;;;;;;;;;;;;;;28.00;42.19;101070.80;104483;1310;61409;-81
2022/07/03 01:25:07;;;;;;;;;;;;;;;27.99;42.00;101069.08;104523;1308;72789;-81
2022/07/03 01:27:38;;;;;;;;;;;;;;;27.99;41.97;101064.34;104596;1308;74528;-81
2022/07/03 01:30:04;;;;;;;;;;;;;;;27.99;42.12;101069.04;104636;1308;61163;-81
2022/07/03 01:32:32;;;;;;;;;;;;;;;27.98;42.23;101072.72;104659;1308;61275;-81
2022/07/03 01:34:57;;;;;;;;;;;;;;;27.98;41.98;101070.20;104467;1309;72659;-81
2022/07/03 01:37:24;;;;;;;;;;;;;;;27.98;42.19;101069.66;104349;1311;61453;-81
2022/07/03 01:39:51;;;;;;;;;;;;;;;27.98;42.06;101069.83;104505;1309;61278;-81
2022/07/03 01:42:17;;;;;;;;;;;;;;;27.98;42.03;101068.96;104534;1309;61964;-81
2022/07/03 01:44:43;;;;;;;;;;;;;;;27.98;42.23;101070.23;104525;1309;61612;-81
2022/07/03 01:47:08;;;;;;;;;;;;;;;27.98;42.14;101071.35;104522;1309;61380;-81
2022/07/03 01:49:34;;;;;;;;;;;;;;;27.98;42.23;101071.17;104615;1308;61412;-81
2022/07/03 01:51:59;;;;;;;;;;;;;;;27.97;41.95;101071.20;104537;1308;61295;-81
2022/07/03 01:54:25;;;;;;;;;;;;;;;27.98;41.89;101070.06;104570;1309;61498;-81
2022/07/03 01:56:52;;;;;;;;;;;;;;;27.97;41.94;101071.24;104745;1302;72813;-81
2022/07/03 01:59:18;;;;;;;;;;;;;;;27.97;41.98;101070.14;104926;1302;61844;-81
2022/07/03 02:02:02;;;;;;;;;;;;;;;27.97;41.95;101067.27;104971;1301;61300;-81
2022/07/03 02:04:37;;;;;;;;;;;;;;;27.97;41.93;101073.04;105174;1302;60347;-81
2022/07/03 02:07:15;;;;;;;;;;;;;;;27.97;42.03;101077.59;105013;1303;74031;-81
2022/07/03 02:09:44;;;;;;;;;;;;;;;27.97;42.04;101081.01;104999;1302;74730;-81
2022/07/03 02:12:11;;;;;;;;;;;;;;;27.96;42.07;101076.55;105172;1302;61174;-81
2022/07/03 02:14:37;;;;;;;;;;;;;;;27.97;42.17;101079.77;105142;1302;61449;-82
2022/07/03 02:17:18;;;;;;;;;;;;;;;27.97;41.98;101080.52;105153;1302;61431;-81
2022/07/03 02:19:50;;;;;;;;;;;;;;;27.96;41.98;101087.95;104873;1302;77291;-81
2022/07/03 02:22:16;;;;;;;;;;;;;;;27.96;42.18;101087.95;105134;1302;61079;-81
2022/07/03 02:24:44;;;;;;;;;;;;;;;27.96;42.04;101093.79;105125;1302;61221;-81
2022/07/03 02:27:14;;;;;;;;;;;;;;;27.96;41.89;101098.27;104983;1302;73344;-82
2022/07/03 02:29:46;;;;;;;;;;;;;;;27.96;41.85;101102.25;104963;1302;76800;-82
2022/07/03 02:32:12;;;;;;;;;;;;;;;27.95;41.89;101099.09;105181;1302;61454;-82
2022/07/03 02:34:38;;;;;;;;;;;;;;;27.96;41.85;101095.60;105164;1302;61293;-82
2022/07/03 02:37:05;;;;;;;;;;;;;;;27.95;41.87;101100.92;105162;1302;61255;-81
2022/07/03 02:39:39;;;;;;;;;;;;;;;27.95;41.83;101107.61;105192;1301;61270;-81
2022/07/03 02:42:07;;;;;;;;;;;;;;;27.95;41.96;101113.20;105185;1302;61175;-81
2022/07/03 02:44:45;;;;;;;;;;;;;;;27.95;42.05;101109.23;104945;1302;61192;-81
2022/07/03 02:47:22;;;;;;;;;;;;;;;27.95;41.98;101111.27;105031;1302;73967;-81
2022/07/03 02:49:53;;;;;;;;;;;;;;;27.94;41.74;101111.45;105011;1302;74349;-81
2022/07/03 02:52:29;;;;;;;;;;;;;;;27.95;41.99;101115.23;105144;1301;61424;-81
2022/07/03 02:54:55;;;;;;;;;;;;;;;27.95;41.71;101115.98;105002;1302;61715;-81
2022/07/03 02:57:22;;;;;;;;;;;;;;;27.95;41.95;101119.78;104995;1303;61142;-81
2022/07/03 03:00:14;;;;;;;;;;;;;;;27.94;41.83;101117.27;105137;1302;75719;-81
2022/07/03 03:02:45;;;;;;;;;;;;;;;27.94;41.83;101115.66;104461;1308;61071;-81
2022/07/03 03:05:20;;;;;;;;;;;;;;;27.94;41.79;101115.26;104456;1309;61368;-81
2022/07/03 03:07:46;;;;;;;;;;;;;;;27.94;41.79;101119.63;104430;1309;73880;-81
2022/07/03 03:10:12;;;;;;;;;;;;;;;27.94;41.69;101119.06;104491;1308;61319;-81
2022/07/03 03:12:37;;;;;;;;;;;;;;;27.94;41.61;101115.28;104533;1308;61280;-81
2022/07/03 03:15:04;;;;;;;;;;;;;;;27.94;41.70;101114.38;104552;1308;61291;-81
2022/07/03 03:17:36;;;;;;;;;;;;;;;27.95;41.88;101114.34;104490;1309;61270;-83
2022/07/03 03:20:01;;;;;;;;;;;;;;;27.94;41.61;101116.38;104464;1308;75931;-84
2022/07/03 03:22:39;;;;;;;;;;;;;;;27.95;41.59;101117.06;104525;1308;61405;-84
2022/07/03 03:25:04;;;;;;;;;;;;;;;27.95;41.85;101117.23;104586;1306;61287;-84
2022/07/03 03:27:30;;;;;;;;;;;;;;;27.94;41.84;101116.89;104593;1308;61527;-84
2022/07/03 03:29:55;;;;;;;;;;;;;;;27.95;41.69;101121.04;104604;1308;61924;-83
2022/07/03 03:32:21;;;;;;;;;;;;;;;27.94;41.75;101119.64;104557;1308;61407;-83
2022/07/03 03:34:47;;;;;;;;;;;;;;;27.94;41.75;101119.80;104617;1308;61274;-84
2022/07/03 03:37:12;;;;;;;;;;;;;;;27.95;41.79;101117.61;104659;1308;61307;-83
2022/07/03 03:39:38;;;;;;;;;;;;;;;27.95;41.62;101118.49;104672;1301;72755;-84
2022/07/03 03:42:05;;;;;;;;;;;;;;;27.95;41.73;101122.83;104985;1302;61383;-83
2022/07/03 03:44:31;;;;;;;;;;;;;;;27.95;41.48;101124.09;105127;1301;61148;-83
2022/07/03 03:46:56;;;;;;;;;;;;;;;27.95;41.49;101128.42;104972;1302;62049;-84
2022/07/03 03:49:22;;;;;;;;;;;;;;;27.95;41.75;101128.80;104986;1302;61291;-83
2022/07/03 03:51:47;;;;;;;;;;;;;;;27.94;41.80;101127.91;105178;1301;61287;-83
2022/07/03 03:54:13;;;;;;;;;;;;;;;27.95;41.83;101126.80;104994;1302;61297;-83
2022/07/03 03:56:38;;;;;;;;;;;;;;;27.94;41.68;101124.66;104999;1301;61307;-83
2022/07/03 03:59:04;;;;;;;;;;;;;;;27.95;41.64;101122.26;105130;1302;61379;-83
2022/07/03 04:01:29;;;;;;;;;;;;;;;27.95;41.67;101120.30;104980;1302;61326;-83
2022/07/03 04:03:55;;;;;;;;;;;;;;;27.95;41.65;101123.38;105001;1302;61278;-81
2022/07/03 04:06:20;;;;;;;;;;;;;;;27.95;41.57;101122.95;105037;1302;61349;-81
2022/07/03 04:08:46;;;;;;;;;;;;;;;27.95;41.56;101125.34;105157;1302;61365;-82
2022/07/03 04:11:11;;;;;;;;;;;;;;;27.95;41.59;101124.63;104921;1302;61240;-82
2022/07/03 04:13:36;;;;;;;;;;;;;;;27.95;41.64;101126.96;104931;1302;61214;-81
2022/07/03 04:16:02;;;;;;;;;;;;;;;27.95;41.35;101130.94;104887;1302;61364;-81
2022/07/03 04:18:27;;;;;;;;;;;;;;;27.95;41.44;101126.63;104891;1302;61314;-81
2022/07/03 04:20:53;;;;;;;;;;;;;;;27.94;41.35;101126.27;104935;1302;61275;-82
2022/07/03 04:23:18;;;;;;;;;;;;;;;27.95;41.43;101130.02;105188;1302;61256;-82
2022/07/03 04:25:44;;;;;;;;;;;;;;;27.96;41.61;101137.02;104982;1302;61257;-81
2022/07/03 04:28:09;;;;;;;;;;;;;;;27.95;41.60;101135.63;104922;1302;61300;-81
2022/07/03 04:30:35;;;;;;;;;;;;;;;27.95;41.67;101137.05;104981;1300;61330;-81
2022/07/03 04:33:00;;;;;;;;;;;;;;;27.95;41.60;101135.65;105169;1302;61282;-81
2022/07/03 04:35:26;;;;;;;;;;;;;;;27.95;41.43;101140.16;104968;1302;61300;-81
2022/07/03 04:37:51;;;;;;;;;;;;;;;27.94;41.52;101142.73;104860;1302;61291;-81
2022/07/03 04:40:17;;;;;;;;;;;;;;;27.94;41.62;101140.59;104905;1302;61339;-81
2022/07/03 04:42:42;;;;;;;;;;;;;;;27.94;41.40;101139.30;104974;1302;61291;-81
2022/07/03 04:45:08;;;;;;;;;;;;;;;27.94;41.37;101139.52;104919;1302;61384;-81
2022/07/03 04:47:33;;;;;;;;;;;;;;;27.94;41.64;101138.26;105113;1302;61292;-81
2022/07/03 04:49:59;;;;;;;;;;;;;;;27.94;41.22;101131.61;105178;1300;61365;-82
2022/07/03 04:52:24;;;;;;;;;;;;;;;27.93;41.38;101135.80;104907;1302;61236;-81
2022/07/03 04:54:50;;;;;;;;;;;;;;;27.94;41.55;101133.40;104992;1302;62274;-81
2022/07/03 04:57:15;;;;;;;;;;;;;;;27.93;41.33;101134.52;105176;1302;61279;-81
2022/07/03 04:59:41;;;;;;;;;;;;;;;27.93;41.42;101137.60;104952;1302;61246;-81
2022/07/03 05:02:07;;;;;;;;;;;;;;;27.93;41.51;101138.14;104844;1302;61452;-81
2022/07/03 05:04:33;;;;;;;;;;;;;;;27.93;41.44;101138.89;104950;1302;61256;-81
2022/07/03 05:06:59;;;;;;;;;;;;;;;27.92;41.40;101137.86;104942;1302;61249;-81
2022/07/03 05:09:24;;;;;;;;;;;;;;;27.92;41.43;101142.17;104941;1302;61135;-81
2022/07/03 05:11:50;;;;;;;;;;;;;;;27.93;41.25;101145.61;105148;1302;61336;-81
2022/07/03 05:14:15;;;;;;;;;;;;;;;27.92;41.27;101146.89;105137;1300;61362;-81
2022/07/03 05:16:41;;;;;;;;;;;;;;;27.93;41.46;101143.80;105134;1302;62457;-81
2022/07/03 05:19:06;;;;;;;;;;;;;;;27.93;41.35;101141.61;104909;1303;61718;-81
2022/07/03 05:21:31;;;;;;;;;;;;;;;27.92;41.39;101141.48;104988;1302;61699;-81
2022/07/03 05:23:57;;;;;;;;;;;;;;;27.93;41.52;101147.23;104867;1302;61448;-81
2022/07/03 05:26:22;;;;;;;;;;;;;;;27.93;41.55;101146.52;104917;1302;61943;-82
2022/07/03 05:28:48;;;;;;;;;;;;;;;27.93;41.43;101149.23;104919;1302;61365;-82
2022/07/03 05:31:13;;;;;;;;;;;;;;;27.93;41.40;101152.29;104977;1302;61300;-82
2022/07/03 05:33:39;;;;;;;;;;;;;;;27.93;41.27;101150.11;104952;1302;61283;-82
2022/07/03 05:36:05;;;;;;;;;;;;;;;27.93;41.38;101149.55;104956;1302;61283;-82
2022/07/03 05:41:15;;;;;;;;;;;;;;;27.93;41.33;101154.45;104946;1301;75814;-81
2022/07/03 05:43:40;;;;;;;;;;;;;;;27.93;41.43;101153.91;105066;1302;61281;-81
2022/07/03 05:46:06;;;;;;;;;;;;;;;27.93;41.36;101154.97;104769;1302;61963;-81
2022/07/03 05:48:31;;;;;;;;;;;;;;;27.93;41.37;101159.30;104917;1302;61435;-81
2022/07/03 05:50:57;;;;;;;;;;;;;;;27.93;41.48;101158.42;104971;1302;61278;-82
2022/07/03 05:53:23;;;;;;;;;;;;;;;27.93;41.52;101161.86;105129;1302;74576;-82
2022/07/03 05:55:48;;;;;;;;;;;;;;;27.94;41.48;101159.41;105347;1302;61200;-82
2022/07/03 05:58:14;;;;;;;;;;;;;;;27.94;41.31;101163.42;105135;1302;59347;-82
2022/07/03 06:00:39;;;;;;;;;;;;;;;27.94;41.48;101163.05;105046;1301;61314;-82
2022/07/03 06:03:04;;;;;;;;;;;;;;;27.95;41.38;101163.33;105183;1302;61288;-82
2022/07/03 06:05:32;;;;;;;;;;;;;;;27.95;41.55;101167.27;105140;1302;74859;-82
2022/07/03 06:07:57;;;;;;;;;;;;;;;27.96;41.59;101165.55;105128;1302;61291;-81
2022/07/03 06:10:23;;;;;;;;;;;;;;;27.97;41.56;101164.58;105208;1302;61283;-82
2022/07/03 06:12:49;;;;;;;;;;;;;;;27.98;41.19;101161.77;105386;1302;61287;-81
2022/07/03 06:15:14;;;;;;;;;;;;;;;27.99;41.55;101164.77;105389;1301;61285;-82
2022/07/03 06:17:40;;;;;;;;;;;;;;;27.99;41.46;101166.15;104954;1302;62067;-82
2022/07/03 06:20:06;;;;;;;;;;;;;;;28.01;41.74;101169.67;104879;1303;61260;-82
2022/07/03 06:22:31;;;;;;;;;;;;;;;28.02;41.43;101167.21;104934;1302;61190;-81
2022/07/03 06:24:57;;;;;;;;;;;;;;;28.02;41.42;101167.70;105106;1300;61300;-81
2022/07/03 06:27:22;;;;;;;;;;;;;;;28.03;41.46;101170.02;104688;1302;601547;-81
2022/07/03 06:29:49;;;;;;;;;;;;;;;28.03;41.37;101173.76;104972;1302;61264;-81
2022/07/03 06:32:15;;;;;;;;;;;;;;;28.04;41.01;101168.27;105197;1302;61381;-81
2022/07/03 06:34:42;;;;;;;;;;;;;;;28.04;41.29;101167.50;105182;1302;61330;-81
2022/07/03 06:37:08;;;;;;;;;;;;;;;28.05;41.21;101166.02;104889;1302;61249;-81
2022/07/03 06:39:33;;;;;;;;;;;;;;;28.05;41.37;101160.88;104946;1302;61467;-81
2022/07/03 06:41:59;;;;;;;;;;;;;;;28.06;41.09;101162.47;104965;1302;61292;-81
2022/07/03 06:44:24;;;;;;;;;;;;;;;28.07;41.23;101169.27;104970;1302;61345;-81
2022/07/03 06:46:50;;;;;;;;;;;;;;;28.08;41.00;101169.55;105136;1302;61206;-81
2022/07/03 06:49:16;;;;;;;;;;;;;;;28.08;41.24;101164.64;105169;1302;61371;-81
2022/07/03 06:51:41;;;;;;;;;;;;;;;28.09;40.89;101163.48;105186;1302;61943;-81
2022/07/03 06:54:07;;;;;;;;;;;;;;;28.09;41.03;101165.80;105158;1302;61253;-81
2022/07/03 06:56:32;;;;;;;;;;;;;;;28.09;40.99;101164.28;105194;1302;61260;-83
2022/07/03 06:58:58;;;;;;;;;;;;;;;28.11;40.90;101163.69;105169;1302;61242;-83
2022/07/03 07:01:23;;;;;;;;;;;;;;;28.11;41.20;101163.31;104941;1303;61274;-83
2022/07/03 07:03:49;;;;;;;;;;;;;;;28.11;40.92;101161.25;104930;1303;61367;-83
2022/07/03 07:06:14;;;;;;;;;;;;;;;28.11;41.02;101159.83;105189;1301;61309;-83
2022/07/03 07:08:39;;;;;;;;;;;;;;;28.12;41.02;101158.86;105170;1302;61377;-83
2022/07/03 07:11:05;;;;;;;;;;;;;;;28.12;40.94;101160.80;105136;1302;61236;-83
2022/07/03 07:13:31;;;;;;;;;;;;;;;28.12;40.97;101159.55;105175;1301;61613;-83
2022/07/03 07:15:56;;;;;;;;;;;;;;;28.13;40.82;101156.42;105161;1302;61306;-83
2022/07/03 07:18:22;;;;;;;;;;;;;;;28.13;41.08;101156.58;105177;1302;61179;-83
2022/07/03 07:20:47;;;;;;;;;;;;;;;28.13;40.98;101156.17;104911;1302;61226;-83
2022/07/03 07:23:13;;;;;;;;;;;;;;;28.14;40.98;101155.39;105114;1302;61467;-83
2022/07/03 07:25:38;;;;;;;;;;;;;;;28.14;40.79;101157.70;105132;1302;61275;-83
2022/07/03 07:28:03;;;;;;;;;;;;;;;28.14;41.13;101162.02;104971;1302;61243;-83
2022/07/03 07:30:29;;;;;;;;;;;;;;;28.15;40.95;101162.48;104965;1302;61270;-83
2022/07/03 07:32:54;;;;;;;;;;;;;;;28.16;40.79;101163.33;104927;1302;61270;-83
2022/07/03 07:35:20;;;;;;;;;;;;;;;28.16;40.95;101164.41;104935;1302;61301;-83
2022/07/03 07:37:48;;;;;;;;;;;;;;;28.17;40.98;101165.61;104900;1302;61300;-84
2022/07/03 07:40:13;;;;;;;;;;;;;;;28.16;40.65;101167.46;105183;1301;61768;-84
2022/07/03 07:42:39;;;;;;;;;;;;;;;28.17;40.90;101167.06;105142;1302;61269;-84
2022/07/03 07:45:04;;;;;;;;;;;;;;;28.17;40.88;101165.27;104901;1302;61243;-84
2022/07/03 07:47:30;;;;;;;;;;;;;;;28.17;40.75;101169.96;105139;1301;61271;-84
2022/07/03 07:49:55;;;;;;;;;;;;;;;28.17;40.85;101168.87;105083;1302;73667;-84
2022/07/03 07:52:23;;;;;;;;;;;;;;;28.17;40.85;101172.48;104973;1302;61294;-84
2022/07/03 07:54:50;;;;;;;;;;;;;;;28.17;40.99;101169.77;104954;1302;61888;-83
2022/07/03 07:57:15;;;;;;;;;;;;;;;28.17;40.64;101174.10;104958;1301;61333;-83
2022/07/03 07:59:40;;;;;;;;;;;;;;;28.17;40.77;101172.63;105187;1301;61246;-83
2022/07/03 08:07:35;;;;;;;;;;;;;;;28.17;40.78;101173.75;105170;1302;72836;-83
2022/07/03 08:10:00;;;;;;;;;;;;;;;28.17;40.73;101172.29;105131;1301;62598;-83
2022/07/03 08:12:25;;;;;;;;;;;;;;;28.18;40.90;101173.48;104903;1302;61247;-81
2022/07/03 08:14:51;;;;;;;;;;;;;;;28.18;40.80;101173.27;104965;1302;61378;-82
2022/07/03 08:17:16;;;;;;;;;;;;;;;28.18;40.83;101176.48;105218;1302;61309;-82
2022/07/03 08:19:42;;;;;;;;;;;;;;;28.19;40.84;101179.12;105157;1302;61244;-82
2022/07/03 08:22:07;;;;;;;;;;;;;;;28.20;40.71;101183.41;104913;1302;61336;-82
2022/07/03 08:24:33;;;;;;;;;;;;;;;28.20;40.88;101182.66;105149;1302;61275;-82
2022/07/03 08:26:59;;;;;;;;;;;;;;;28.20;40.76;101185.71;104897;1302;61261;-82
2022/07/03 08:29:24;;;;;;;;;;;;;;;28.20;40.88;101185.37;105190;1302;61375;-82
2022/07/03 08:31:49;;;;;;;;;;;;;;;28.21;40.78;101184.80;104932;1302;73868;-82
2022/07/03 08:34:16;;;;;;;;;;;;;;;28.20;40.58;101186.46;105095;1303;61290;-82
2022/07/03 08:36:42;;;;;;;;;;;;;;;28.20;40.75;101187.71;105129;1303;61669;-82
2022/07/03 08:39:09;;;;;;;;;;;;;;;28.20;40.74;101189.75;105247;1302;61586;-82
2022/07/03 08:41:39;;;;;;;;;;;;;;;28.20;40.88;101189.92;104933;1302;61381;-82
2022/07/03 08:44:04;;;;;;;;;;;;;;;28.19;40.64;101192.13;105145;1303;76149;-82
2022/07/03 08:46:30;;;;;;;;;;;;;;;28.19;40.60;101189.26;105241;1301;61259;-82
2022/07/03 08:48:56;;;;;;;;;;;;;;;28.19;40.55;101190.52;104936;1302;61342;-82
2022/07/03 08:51:21;;;;;;;;;;;;;;;28.18;40.78;101192.93;105163;1301;61981;-82
2022/07/03 08:53:47;;;;;;;;;;;;;;;28.19;40.83;101199.61;104926;1302;61311;-82
2022/07/03 08:56:12;;;;;;;;;;;;;;;28.18;40.59;101198.91;105295;1301;61259;-82
2022/07/03 08:58:38;;;;;;;;;;;;;;;28.18;40.55;101198.74;105137;1301;61804;-82
2022/07/03 09:01:03;;;;;;;;;;;;;;;28.18;40.55;101199.11;105121;1301;61269;-82
2022/07/03 09:03:29;;;;;;;;;;;;;;;28.18;40.28;101198.09;105143;1302;61255;-82
2022/07/03 09:05:55;;;;;;;;;;;;;;;28.17;40.46;101198.30;105234;1303;61252;-82
2022/07/03 09:08:21;;;;;;;;;;;;;;;28.17;40.47;101196.53;105298;1302;61204;-81
2022/07/03 09:10:46;;;;;;;;;;;;;;;28.17;40.62;101197.79;105261;1302;61288;-81
2022/07/03 09:13:12;;;;;;;;;;;;;;;28.17;40.59;101194.74;104985;1303;61381;-81
2022/07/03 09:15:37;;;;;;;;;;;;;;;28.17;40.49;101197.05;105140;1301;61444;-81
2022/07/03 09:18:04;;;;;;;;;;;;;;;28.17;40.63;101194.89;105174;1302;61271;-81
2022/07/03 09:20:31;;;;;;;;;;;;;;;28.17;40.27;101195.23;105175;1303;61351;-81
2022/07/03 09:23:11;;;;;;;;;;;;;;;28.17;40.56;101193.98;105216;1301;61229;-81
2022/07/03 09:25:56;;;;;;;;;;;;;;;28.17;40.47;101190.58;104971;1302;73831;-81
2022/07/03 09:28:22;;;;;;;;;;;;;;;28.17;40.35;101194.01;105289;1301;74804;-81
2022/07/03 09:31:00;;;;;;;;;;;;;;;28.17;40.32;101193.81;104991;1302;61261;-81
2022/07/03 09:33:26;;;;;;;;;;;;;;;28.18;40.29;101195.91;105218;1302;61295;-81
2022/07/03 09:35:52;;;;;;;;;;;;;;;28.17;40.27;101196.84;105141;1300;61282;-81
2022/07/03 09:38:17;;;;;;;;;;;;;;;28.18;40.35;101196.80;105152;1303;61699;-81
2022/07/03 09:40:53;;;;;;;;;;;;;;;28.18;40.32;101198.20;105192;1303;61261;-81
2022/07/03 09:43:22;;;;;;;;;;;;;;;28.18;40.33;101197.48;105152;1301;61150;-81
2022/07/03 09:45:51;;;;;;;;;;;;;;;28.18;40.45;101195.52;104905;1303;73070;-81
2022/07/03 09:48:20;;;;;;;;;;;;;;;28.19;40.39;101193.66;105161;1302;75648;-81
2022/07/03 09:50:45;;;;;;;;;;;;;;;28.19;40.44;101193.43;105182;1302;61224;-81
2022/07/03 09:53:11;;;;;;;;;;;;;;;28.20;40.46;101190.66;105169;1303;61281;-81
2022/07/03 09:55:36;;;;;;;;;;;;;;;28.20;40.24;101188.05;105163;1301;61282;-81
2022/07/03 09:58:02;;;;;;;;;;;;;;;28.20;40.29;101186.98;105123;1303;61271;-81
2022/07/03 10:00:28;;;;;;;;;;;;;;;28.21;40.43;101186.00;105204;1301;61384;-81
2022/07/03 10:03:02;;;;;;;;;;;;;;;28.22;40.36;101184.14;105152;1303;61175;-81
2022/07/03 10:05:31;;;;;;;;;;;;;;;28.22;40.38;101181.93;105118;1302;61618;-83
2022/07/03 10:07:58;;;;;;;;;;;;;;;28.22;40.31;101183.55;105215;1302;73730;-82
2022/07/03 10:10:24;;;;;;;;;;;;;;;28.22;40.25;101177.19;105279;1303;74663;-83
2022/07/03 10:12:50;;;;;;;;;;;;;;;28.23;40.32;101181.87;105136;1303;61281;-83
2022/07/03 10:15:16;;;;;;;;;;;;;;;28.23;40.07;101180.03;105166;1302;61281;-83
2022/07/03 10:17:41;;;;;;;;;;;;;;;28.22;40.19;101174.98;105125;1302;61252;-81
2022/07/03 10:20:07;;;;;;;;;;;;;;;28.23;40.04;101170.61;105188;1302;61725;-82
2022/07/03 10:22:33;;;;;;;;;;;;;;;28.22;40.07;101165.92;105157;1302;61350;-82
2022/07/03 10:24:58;;;;;;;;;;;;;;;28.23;40.02;101164.98;105198;1301;61264;-82
2022/07/03 10:27:24;;;;;;;;;;;;;;;28.23;40.17;101161.38;105208;1303;61263;-82
2022/07/03 10:29:49;;;;;;;;;;;;;;;28.23;40.22;101159.34;105235;1303;61813;-82
2022/07/03 10:32:15;;;;;;;;;;;;;;;28.23;40.14;101155.91;105167;1301;61271;-82
2022/07/03 10:34:41;;;;;;;;;;;;;;;28.23;40.09;101155.75;105154;1303;61278;-82
2022/07/03 10:37:07;;;;;;;;;;;;;;;28.23;40.16;101153.94;105264;1302;61370;-82
2022/07/03 10:39:39;;;;;;;;;;;;;;;28.23;40.16;101150.81;105244;1302;61246;-82
2022/07/03 10:45:11;;;;;;;;;;;;;;;28.24;40.12;101140.50;105135;1303;76042;-82
2022/07/03 10:47:42;;;;;;;;;;;;;;;28.24;40.12;101139.39;105144;1302;62474;-82
2022/07/03 10:50:14;;;;;;;;;;;;;;;28.24;40.14;101139.02;105193;1303;61130;-82
2022/07/03 10:52:40;;;;;;;;;;;;;;;28.24;39.83;101136.64;105256;1302;73695;-82
2022/07/03 10:55:06;;;;;;;;;;;;;;;28.25;40.14;101129.35;104907;1302;61284;-82
2022/07/03 10:57:33;;;;;;;;;;;;;;;28.25;39.99;101125.54;105199;1302;61287;-82
2022/07/03 11:00:00;;;;;;;;;;;;;;;28.25;40.14;101125.46;105270;1303;61887;-82
2022/07/03 11:02:33;;;;;;;;;;;;;;;28.26;39.97;101122.58;105121;1302;71844;-82
2022/07/03 11:05:02;;;;;;;;;;;;;;;28.26;40.21;101123.63;104927;1302;75784;-82
2022/07/03 11:07:27;;;;;;;;;;;;;;;28.26;40.10;101124.86;105250;1302;61243;-82
2022/07/03 11:10:08;;;;;;;;;;;;;;;28.27;40.20;101123.72;105180;1302;61362;-82
2022/07/03 11:12:52;;;;;;;;;;;;;;;28.27;40.03;101116.81;105143;1303;72978;-82
2022/07/03 11:15:28;;;;;;;;;;;;;;;28.28;40.10;101111.16;105250;1301;75767;-82
2022/07/03 11:20:35;;;;;;;;;;;;;;;28.28;39.94;101109.16;105246;1303;61151;-82
2022/07/03 11:23:09;;;;;;;;;;;;;;;28.29;40.15;101107.30;105252;1301;73790;-81
2022/07/03 11:25:42;;;;;;;;;;;;;;;28.29;40.07;101102.75;105258;1301;75743;-82
2022/07/03 11:28:07;;;;;;;;;;;;;;;28.29;40.09;101098.79;105277;1302;61286;-82
2022/07/03 11:30:33;;;;;;;;;;;;;;;28.29;40.28;101093.35;105190;1302;61336;-82
2022/07/03 11:33:00;;;;;;;;;;;;;;;28.29;40.11;101094.61;104936;1302;61255;-82
2022/07/03 11:35:54;;;;;;;;;;;;;;;28.29;40.11;101092.79;105121;1302;61240;-82
2022/07/03 11:38:21;;;;;;;;;;;;;;;28.30;40.00;101094.18;105259;1303;61147;-82
2022/07/03 11:40:47;;;;;;;;;;;;;;;28.29;40.49;101086.60;105232;1303;61450;-82
2022/07/03 11:43:13;;;;;;;;;;;;;;;28.29;40.35;101087.31;105212;1301;61114;-82
2022/07/03 11:45:40;;;;;;;;;;;;;;;28.30;40.40;101081.84;104931;1302;61812;-82
2022/07/03 11:48:06;;;;;;;;;;;;;;;28.30;40.09;101076.06;105182;1302;61276;-82
2022/07/03 11:50:38;;;;;;;;;;;;;;;28.30;40.21;101072.98;105223;1302;61362;-82
2022/07/03 11:53:20;;;;;;;;;;;;;;;28.30;40.24;101067.32;105114;1302;73757;-82
2022/07/03 11:55:55;;;;;;;;;;;;;;;28.30;40.21;101066.63;105099;1303;74674;-82
2022/07/03 11:58:20;;;;;;;;;;;;;;;28.31;40.20;101065.48;105225;1303;61289;-82
2022/07/03 12:00:46;;;;;;;;;;;;;;;28.31;40.17;101062.94;105131;1303;61501;-82
2022/07/03 12:03:15;;;;;;;;;;;;;;;28.30;40.14;101062.77;105236;1302;61263;-82
2022/07/03 12:05:50;;;;;;;;;;;;;;;28.31;40.16;101060.17;104901;1302;74812;-82
2022/07/03 12:08:21;;;;;;;;;;;;;;;28.31;40.18;101054.95;105217;1301;61170;-82
2022/07/03 12:10:46;;;;;;;;;;;;;;;28.31;40.21;101049.14;105187;1303;61374;-82
2022/07/03 12:13:21;;;;;;;;;;;;;;;28.31;40.22;101047.48;105225;1301;61256;-82
2022/07/03 12:15:46;;;;;;;;;;;;;;;28.31;40.31;101041.52;105101;1302;75753;-82
2022/07/03 12:18:12;;;;;;;;;;;;;;;28.31;40.30;101038.05;105170;1303;61819;-82
2022/07/03 12:20:37;;;;;;;;;;;;;;;28.32;40.36;101034.08;105112;1303;61240;-82
2022/07/03 12:23:03;;;;;;;;;;;;;;;28.32;40.40;101035.46;105145;1303;61380;-82
2022/07/03 12:25:31;;;;;;;;;;;;;;;28.32;40.33;101028.92;105173;1301;61291;-82
2022/07/03 12:27:57;;;;;;;;;;;;;;;28.33;40.30;101024.34;105114;1303;76074;-82
2022/07/03 12:30:24;;;;;;;;;;;;;;;28.33;40.32;101023.25;105101;1301;61272;-82
2022/07/03 12:32:50;;;;;;;;;;;;;;;28.33;40.38;101019.95;105185;1301;59925;-82
2022/07/03 12:35:20;;;;;;;;;;;;;;;28.34;40.10;101015.60;105207;1302;61208;-82
2022/07/03 12:37:46;;;;;;;;;;;;;;;28.34;40.27;101016.45;105168;1302;75326;-82
2022/07/03 12:40:13;;;;;;;;;;;;;;;28.34;40.40;101013.31;105259;1302;61291;-82